21ND weather

Rosenau Airport
Upham, North Dakota, United States

Public forecast

Using degrees Fahrenheit for public forecast. Weather courtesy of forecast.io.

METAR (pilot weather report)

Closest report is Minot Air Force Base, 22.4 nm (41.4 km) WSW. Retrieved 2019/09/19 00:56 UTC (7 minutes ago):

KMIB 190056Z AUTO 30005KT 10SM CLR 19/12 A2982 RMK AO2 SLP101 T01880123 $

TAF (pilot weather forecast)

Closest forecast is Minot Air Force Base, 22.4 nm (41.4 km) WSW. Retrieved 2019/09/19 01:03 UTC (0 seconds ago):

TAF KMIB 190100Z 1901/2007 31009KT 9999 FEW030 QNH2982INS BECMG 1906/1907 VRB06KT 2400 BR FEW020 QNH2984INS BECMG 1913/1914 31009KT 9999 NSW SKC QNH2985INS BECMG 1917/1918 13012G18KT 9999 SKC QNH2987INS TX25/1920Z TN13/1911Z